Time;durP1;ratioP1;P1;durP2;ratioP2;P2;SDS_P1;SDS_P2;PMS_P1;PMS_P2;Temp;Humidity;BMP_temperature;BMP_pressure;BME280_temperature;BME280_humidity;BME280_pressure;Samples;Min_cycle;Max_cycle;Signal;HPM_P1;HPM_P2
2023/09/14 00:04:35;;;;;;;9.27;4.90;;;;;;;;;;10369017;28;20029;-76
2023/09/14 00:09:36;;;;;;;12.32;5.00;;;;;;;;;;10398141;28;20048;-80
2023/09/14 00:14:37;;;;;;;12.95;5.60;;;;;;;;;;10352863;28;20031;-76
2023/09/14 00:19:39;;;;;;;11.85;4.82;;;;;;;;;;10377498;28;20150;-78
2023/09/14 00:24:39;;;;;;;10.75;4.88;;;;;;;;;;10357137;28;20117;-72
2023/09/14 00:29:39;;;;;;;11.55;5.07;;;;;;;;;;10375121;28;20087;-74
2023/09/14 00:34:40;;;;;;;10.55;5.15;;;;;;;;;;10368665;28;20672;-83
2023/09/14 00:39:40;;;;;;;12.32;5.93;;;;;;;;;;10383443;28;20067;-79
2023/09/14 00:44:42;;;;;;;11.65;5.53;;;;;;;;;;10357026;28;20492;-76
2023/09/14 00:49:43;;;;;;;7.68;4.60;;;;;;;;;;10366318;28;20109;-74
2023/09/14 00:54:43;;;;;;;9.07;5.22;;;;;;;;;;10365793;28;20075;-76
2023/09/14 00:59:45;;;;;;;12.02;5.18;;;;;;;;;;10372444;28;20037;-75
2023/09/14 01:04:45;;;;;;;7.30;5.20;;;;;;;;;;10369477;28;20022;-74
2023/09/14 01:09:49;;;;;;;7.03;4.40;;;;;;;;;;10369544;28;20492;-79
2023/09/14 01:14:53;;;;;;;10.57;5.55;;;;;;;;;;10372557;28;20075;-81
2023/09/14 01:20:13;;;;;;;13.02;5.28;;;;;;;;;;10391531;28;20026;-78
2023/09/14 01:25:21;;;;;;;9.52;5.30;;;;;;;;;;10374855;28;20036;-77
2023/09/14 01:30:24;;;;;;;10.27;4.97;;;;;;;;;;10391834;28;20021;-72
2023/09/14 01:35:50;;;;;;;9.90;5.55;;;;;;;;;;10424064;28;20120;-70
2023/09/14 01:40:51;;;;;;;11.70;4.93;;;;;;;;;;10474333;28;20037;-76
2023/09/14 01:45:52;;;;;;;12.18;4.97;;;;;;;;;;10488650;28;20459;-73
2023/09/14 01:50:52;;;;;;;10.30;5.30;;;;;;;;;;10489447;28;20020;-81
2023/09/14 01:55:53;;;;;;;12.60;4.70;;;;;;;;;;10478990;28;20024;-78
2023/09/14 02:00:54;;;;;;;9.13;4.78;;;;;;;;;;10492349;28;20029;-78
2023/09/14 02:05:58;;;;;;;12.02;5.03;;;;;;;;;;10489716;28;20036;-75
2023/09/14 02:10:58;;;;;;;15.63;5.60;;;;;;;;;;10471517;28;20024;-75
2023/09/14 02:15:58;;;;;;;8.40;4.97;;;;;;;;;;10490002;28;20028;-73
2023/09/14 02:20:58;;;;;;;9.43;5.57;;;;;;;;;;10516327;28;20032;-78
2023/09/14 02:26:00;;;;;;;11.93;5.88;;;;;;;;;;10491121;28;20021;-74
2023/09/14 02:31:05;;;;;;;12.33;6.13;;;;;;;;;;10472762;28;20063;-75
2023/09/14 02:36:07;;;;;;;10.88;5.78;;;;;;;;;;10500300;28;20123;-76
2023/09/14 02:41:07;;;;;;;15.85;5.35;;;;;;;;;;10498928;28;20064;-73
2023/09/14 02:46:08;;;;;;;13.13;5.80;;;;;;;;;;10505185;28;20523;-81
2023/09/14 02:51:20;;;;;;;15.18;6.72;;;;;;;;;;10483891;28;20165;-72
2023/09/14 03:02:15;;;;;;;14.95;7.22;;;;;;;;;;10495205;28;20037;-77
2023/09/14 03:07:17;;;;;;;11.03;5.23;;;;;;;;;;10477644;28;20354;-76
2023/09/14 03:12:18;;;;;;;16.58;6.43;;;;;;;;;;10474982;28;20369;-80
2023/09/14 03:17:19;;;;;;;13.05;5.68;;;;;;;;;;10475450;28;20512;-78
2023/09/14 03:22:20;;;;;;;9.07;5.27;;;;;;;;;;10485804;28;20549;-81
2023/09/14 03:27:21;;;;;;;13.43;6.88;;;;;;;;;;10489333;28;20401;-83
2023/09/14 03:32:22;;;;;;;14.80;7.28;;;;;;;;;;10465833;28;20059;-80
2023/09/14 03:37:22;;;;;;;7.15;4.80;;;;;;;;;;10470319;28;20040;-76
2023/09/14 03:42:25;;;;;;;9.65;5.63;;;;;;;;;;10470234;28;20460;-81
2023/09/14 03:47:26;;;;;;;10.30;5.22;;;;;;;;;;10465490;28;20378;-81
2023/09/14 03:52:27;;;;;;;9.57;5.18;;;;;;;;;;10472115;28;20042;-80
2023/09/14 03:57:28;;;;;;;15.63;5.53;;;;;;;;;;10445152;28;20028;-73
2023/09/14 04:02:28;;;;;;;16.10;6.03;;;;;;;;;;10476026;28;20077;-76
2023/09/14 04:07:28;;;;;;;17.45;6.15;;;;;;;;;;10467444;28;20031;-78
2023/09/14 04:12:29;;;;;;;14.50;5.55;;;;;;;;;;10479132;28;20040;-80
2023/09/14 04:17:29;;;;;;;12.13;6.30;;;;;;;;;;10486425;28;20435;-80
2023/09/14 04:22:33;;;;;;;12.10;5.03;;;;;;;;;;10458956;28;20040;-79
2023/09/14 04:27:53;;;;;;;14.48;5.95;;;;;;;;;;10486531;28;20350;-80
2023/09/14 04:32:53;;;;;;;9.00;5.40;;;;;;;;;;10490396;28;20061;-80
2023/09/14 04:37:53;;;;;;;12.75;6.20;;;;;;;;;;10500980;28;20104;-80
2023/09/14 04:42:54;;;;;;;11.52;5.78;;;;;;;;;;10468749;28;20397;-83
2023/09/14 04:47:54;;;;;;;18.10;5.77;;;;;;;;;;10450402;28;20039;-80
2023/09/14 04:52:56;;;;;;;13.97;5.87;;;;;;;;;;10450700;28;20019;-73
2023/09/14 04:57:56;;;;;;;11.13;5.35;;;;;;;;;;10452807;28;20035;-77
2023/09/14 05:02:57;;;;;;;12.57;6.23;;;;;;;;;;10471086;28;20043;-81
2023/09/14 05:07:58;;;;;;;10.63;5.68;;;;;;;;;;10450231;28;20020;-77
2023/09/14 05:12:58;;;;;;;16.48;7.03;;;;;;;;;;10450408;28;20997;-77
2023/09/14 05:17:59;;;;;;;15.85;6.03;;;;;;;;;;10470431;28;20060;-73
2023/09/14 05:22:59;;;;;;;14.40;5.13;;;;;;;;;;10442591;28;20032;-75
2023/09/14 05:27:59;;;;;;;11.07;6.32;;;;;;;;;;10464938;28;20082;-74
2023/09/14 05:33:00;;;;;;;14.65;6.80;;;;;;;;;;10455290;28;20089;-78
2023/09/14 05:38:01;;;;;;;17.25;6.63;;;;;;;;;;10446458;28;20033;-81
2023/09/14 05:43:01;;;;;;;13.87;5.60;;;;;;;;;;10444984;28;20853;-76
2023/09/14 05:48:04;;;;;;;17.08;5.85;;;;;;;;;;10442397;28;20028;-76
2023/09/14 05:53:05;;;;;;;17.55;5.60;;;;;;;;;;10444000;28;20017;-74
2023/09/14 05:58:06;;;;;;;13.85;5.35;;;;;;;;;;10463683;28;20365;-77
2023/09/14 06:03:07;;;;;;;8.65;4.82;;;;;;;;;;10441532;28;20159;-75
2023/09/14 06:08:09;;;;;;;12.15;4.93;;;;;;;;;;10457156;28;20036;-76
2023/09/14 06:13:09;;;;;;;11.68;5.88;;;;;;;;;;10441275;28;20017;-78
2023/09/14 06:18:12;;;;;;;16.83;6.18;;;;;;;;;;10439664;28;20027;-76
2023/09/14 06:23:13;;;;;;;15.43;5.35;;;;;;;;;;10450806;28;20032;-80
2023/09/14 06:28:14;;;;;;;12.80;5.53;;;;;;;;;;10441886;28;20027;-74
2023/09/14 06:33:14;;;;;;;11.13;4.87;;;;;;;;;;10453920;28;20425;-78
2023/09/14 06:38:14;;;;;;;12.88;4.82;;;;;;;;;;10438264;28;20405;-76
2023/09/14 06:43:14;;;;;;;17.57;6.97;;;;;;;;;;10441628;28;20028;-75
2023/09/14 06:48:15;;;;;;;10.52;4.45;;;;;;;;;;10453185;28;20447;-74
2023/09/14 06:53:18;;;;;;;15.32;7.07;;;;;;;;;;10456122;28;20019;-78
2023/09/14 06:58:21;;;;;;;38.25;35.13;;;;;;;;;;10452757;28;20445;-81
2023/09/14 07:03:23;;;;;;;26.70;24.25;;;;;;;;;;10458040;28;20029;-79
2023/09/14 07:08:25;;;;;;;136.13;127.05;;;;;;;;;;10451799;28;20067;-77
2023/09/14 07:13:26;;;;;;;8.45;4.05;;;;;;;;;;10437036;28;20017;-80
2023/09/14 07:18:27;;;;;;;120.70;112.73;;;;;;;;;;10457384;28;20476;-82
2023/09/14 07:23:28;;;;;;;69.18;64.30;;;;;;;;;;10451457;28;20350;-83
2023/09/14 07:28:48;;;;;;;124.55;117.22;;;;;;;;;;10452732;28;20013;-76
2023/09/14 07:33:49;;;;;;;148.53;138.23;;;;;;;;;;10428200;28;20041;-74
2023/09/14 07:38:50;;;;;;;25.65;18.38;;;;;;;;;;10463207;28;20058;-77
2023/09/14 07:43:51;;;;;;;34.28;31.05;;;;;;;;;;10464418;28;20027;-77
2023/09/14 07:48:51;;;;;;;294.65;273.63;;;;;;;;;;10452667;28;20374;-78
2023/09/14 07:53:53;;;;;;;410.35;379.80;;;;;;;;;;10467544;28;20035;-79
2023/09/14 07:58:53;;;;;;;487.52;449.88;;;;;;;;;;10466326;28;20043;-74
2023/09/14 08:03:54;;;;;;;298.53;276.07;;;;;;;;;;10462271;28;20013;-75
2023/09/14 08:08:55;;;;;;;398.42;368.63;;;;;;;;;;10444034;28;20017;-77
2023/09/14 08:13:57;;;;;;;384.25;354.80;;;;;;;;;;10446613;28;20020;-81
2023/09/14 08:18:58;;;;;;;422.42;391.00;;;;;;;;;;10457615;28;20024;-75
2023/09/14 08:23:58;;;;;;;364.35;337.70;;;;;;;;;;10439747;28;20409;-77
2023/09/14 08:28:58;;;;;;;530.42;491.30;;;;;;;;;;10450442;28;20091;-75
2023/09/14 08:33:59;;;;;;;754.60;694.58;;;;;;;;;;10458111;28;20052;-71
2023/09/14 08:38:59;;;;;;;20.40;6.25;;;;;;;;;;10468036;28;20040;-76
2023/09/14 08:44:01;;;;;;;18.42;5.18;;;;;;;;;;10468524;28;20572;-77
2023/09/14 08:49:03;;;;;;;18.10;4.80;;;;;;;;;;10448465;28;20035;-75
2023/09/14 08:54:04;;;;;;;19.80;5.93;;;;;;;;;;10465365;28;20013;-75
2023/09/14 08:59:06;;;;;;;16.27;5.63;;;;;;;;;;10433356;28;20032;-77
2023/09/14 09:04:06;;;;;;;141.55;130.90;;;;;;;;;;10444823;28;20460;-75
2023/09/14 09:09:08;;;;;;;498.65;461.58;;;;;;;;;;10460253;28;20036;-81
2023/09/14 09:14:09;;;;;;;720.30;662.45;;;;;;;;;;10449954;28;20123;-77
2023/09/14 09:19:10;;;;;;;606.03;559.92;;;;;;;;;;10451193;28;20533;-75
2023/09/14 09:24:13;;;;;;;619.75;572.60;;;;;;;;;;10453994;28;20014;-76
2023/09/14 09:29:17;;;;;;;864.30;794.55;;;;;;;;;;10484836;28;20021;-76
2023/09/14 09:34:24;;;;;;;917.17;842.95;;;;;;;;;;10428497;28;20064;-73
2023/09/14 09:39:24;;;;;;;;;;;;;;;;;;10409695;28;20044;-79
2023/09/14 09:44:27;;;;;;;952.60;875.95;;;;;;;;;;10406493;28;19905;-76
2023/09/14 09:49:28;;;;;;;1107.18;999.90;;;;;;;;;;10420904;28;20122;-76
2023/09/14 09:54:30;;;;;;;1138.00;999.90;;;;;;;;;;10390386;28;20024;-79
2023/09/14 09:59:36;;;;;;;1065.68;974.25;;;;;;;;;;10411927;28;20105;-82
2023/09/14 10:04:37;;;;;;;1122.05;999.90;;;;;;;;;;10409570;28;20028;-73
2023/09/14 10:09:37;;;;;;;1135.78;999.90;;;;;;;;;;10386970;28;20013;-76
2023/09/14 10:14:39;;;;;;;1017.10;930.53;;;;;;;;;;10405331;28;20526;-76
2023/09/14 10:19:41;;;;;;;1174.03;999.90;;;;;;;;;;10392705;28;20029;-78
2023/09/14 10:24:41;;;;;;;556.38;507.85;;;;;;;;;;10387822;28;20021;-76
2023/09/14 10:29:42;;;;;;;1170.18;999.90;;;;;;;;;;10386194;28;20024;-83
2023/09/14 10:34:43;;;;;;;1137.47;999.90;;;;;;;;;;10408066;28;20072;-74
2023/09/14 10:39:44;;;;;;;1174.95;999.90;;;;;;;;;;10411018;28;20029;-79
2023/09/14 10:44:44;;;;;;;1162.15;999.90;;;;;;;;;;10397359;28;20036;-81
2023/09/14 10:49:49;;;;;;;1148.13;999.90;;;;;;;;;;10405868;28;20845;-84
2023/09/14 10:54:50;;;;;;;1177.90;999.90;;;;;;;;;;10421787;28;20017;-77
2023/09/14 10:59:51;;;;;;;1170.40;999.90;;;;;;;;;;10422637;28;20091;-74
2023/09/14 11:05:10;;;;;;;815.90;744.15;;;;;;;;;;10428895;28;20039;-76
2023/09/14 11:10:15;;;;;;;1172.68;999.90;;;;;;;;;;10424922;28;20016;-76
2023/09/14 11:15:20;;;;;;;13.30;6.65;;;;;;;;;;10403801;28;20025;-75
2023/09/14 11:20:20;;;;;;;778.53;710.23;;;;;;;;;;10408828;28;20105;-76
2023/09/14 11:25:30;;;;;;;1188.33;999.90;;;;;;;;;;10425352;28;20430;-77
2023/09/14 11:30:31;;;;;;;9.15;3.00;;;;;;;;;;10420774;28;20013;-78
2023/09/14 11:35:32;;;;;;;782.58;713.65;;;;;;;;;;10420283;28;20537;-76
2023/09/14 11:40:33;;;;;;;1169.55;999.90;;;;;;;;;;10399219;28;20493;-74
2023/09/14 11:45:34;;;;;;;1161.70;999.90;;;;;;;;;;10402545;28;20021;-79
2023/09/14 11:50:37;;;;;;;1161.80;999.90;;;;;;;;;;10424070;28;20013;-76
2023/09/14 11:55:37;;;;;;;1158.88;999.90;;;;;;;;;;10409037;28;20115;-81
2023/09/14 12:00:49;;;;;;;855.08;780.15;;;;;;;;;;10405609;28;20039;-77
2023/09/14 12:05:52;;;;;;;1148.93;999.90;;;;;;;;;;10405806;28;20611;-78
2023/09/14 12:10:54;;;;;;;14.85;11.98;;;;;;;;;;10411201;28;20497;-79
2023/09/14 12:16:01;;;;;;;743.88;682.85;;;;;;;;;;10420985;28;20497;-77
2023/09/14 12:21:02;;;;;;;1134.55;999.90;;;;;;;;;;10417227;28;20508;-72
2023/09/14 12:26:04;;;;;;;1145.80;999.90;;;;;;;;;;10408759;28;20013;-79
2023/09/14 12:31:05;;;;;;;538.95;493.52;;;;;;;;;;10412543;28;20473;-82
2023/09/14 12:36:05;;;;;;;1092.57;998.20;;;;;;;;;;10392363;28;20106;-73
2023/09/14 12:41:06;;;;;;;1140.70;999.90;;;;;;;;;;10387898;28;20037;-77
2023/09/14 12:46:07;;;;;;;1122.40;999.90;;;;;;;;;;10414665;28;20024;-80
2023/09/14 12:51:07;;;;;;;1090.85;998.03;;;;;;;;;;10403196;28;20029;-71
2023/09/14 12:56:09;;;;;;;1122.40;999.90;;;;;;;;;;10435411;28;20025;-76
2023/09/14 13:01:10;;;;;;;1117.43;999.90;;;;;;;;;;10404930;28;20523;-76
2023/09/14 13:06:10;;;;;;;1126.27;999.90;;;;;;;;;;10426291;28;20204;-73
2023/09/14 13:11:23;;;;;;;1143.35;999.90;;;;;;;;;;10413761;28;20028;-75
2023/09/14 13:16:27;;;;;;;1148.32;999.90;;;;;;;;;;10401051;28;20419;-86
2023/09/14 13:21:28;;;;;;;1143.50;999.90;;;;;;;;;;10406481;28;20036;-75
2023/09/14 13:26:29;;;;;;;1125.75;999.90;;;;;;;;;;10396016;28;20025;-74
2023/09/14 13:31:29;;;;;;;6.63;3.20;;;;;;;;;;10401498;28;20311;-78
2023/09/14 13:36:29;;;;;;;9.02;3.65;;;;;;;;;;10420788;28;20531;-74
2023/09/14 13:41:29;;;;;;;6.22;3.67;;;;;;;;;;10425224;28;20025;-76
2023/09/14 13:46:30;;;;;;;11.38;3.63;;;;;;;;;;10423630;28;20029;-75
2023/09/14 13:51:31;;;;;;;9.43;3.90;;;;;;;;;;10428402;28;20052;-75
2023/09/14 13:56:32;;;;;;;14.00;4.23;;;;;;;;;;10407853;28;20027;-79
2023/09/14 14:01:32;;;;;;;12.15;4.03;;;;;;;;;;10427532;28;20866;-73
2023/09/14 14:06:34;;;;;;;11.10;4.10;;;;;;;;;;10426353;28;20033;-80
2023/09/14 14:11:34;;;;;;;12.10;4.07;;;;;;;;;;10425406;28;20037;-77
2023/09/14 14:16:35;;;;;;;9.48;4.13;;;;;;;;;;10423120;28;20290;-74
2023/09/14 14:21:35;;;;;;;7.40;4.32;;;;;;;;;;10427916;28;20108;-79
2023/09/14 14:26:36;;;;;;;8.65;4.20;;;;;;;;;;10444602;28;20072;-75
2023/09/14 14:31:36;;;;;;;12.45;4.00;;;;;;;;;;10407611;28;20088;-83
2023/09/14 14:36:38;;;;;;;14.98;4.85;;;;;;;;;;10447669;28;20053;-79
2023/09/14 14:41:39;;;;;;;13.82;5.60;;;;;;;;;;10449483;28;20041;-75
2023/09/14 14:46:41;;;;;;;10.57;4.15;;;;;;;;;;10453476;28;20036;-79
2023/09/14 14:51:41;;;;;;;12.60;4.57;;;;;;;;;;10448828;28;20502;-74
2023/09/14 14:56:41;;;;;;;12.88;4.47;;;;;;;;;;10453929;28;20032;-75
2023/09/14 15:01:42;;;;;;;8.60;4.30;;;;;;;;;;10435666;28;20115;-73
2023/09/14 15:06:44;;;;;;;7.97;4.55;;;;;;;;;;10452234;28;20798;-75
2023/09/14 15:11:46;;;;;;;13.20;5.20;;;;;;;;;;10449608;28;20031;-81
2023/09/14 15:16:46;;;;;;;12.52;5.40;;;;;;;;;;10437473;28;20035;-73
2023/09/14 15:21:47;;;;;;;10.77;4.67;;;;;;;;;;10427194;28;20476;-74
2023/09/14 15:26:47;;;;;;;13.18;5.63;;;;;;;;;;10440855;28;20285;-74
2023/09/14 15:31:47;;;;;;;19.10;4.95;;;;;;;;;;10441738;28;20056;-76
2023/09/14 15:36:49;;;;;;;8.10;4.50;;;;;;;;;;10413635;28;20425;-78
2023/09/14 15:41:50;;;;;;;18.60;4.70;;;;;;;;;;10373550;28;20436;-73
2023/09/14 15:46:50;;;;;;;17.58;5.22;;;;;;;;;;10405983;28;20509;-75
2023/09/14 15:51:50;;;;;;;15.40;5.95;;;;;;;;;;10391162;28;20025;-73
2023/09/14 15:56:51;;;;;;;14.55;5.35;;;;;;;;;;10408355;28;20053;-76
2023/09/14 16:01:51;;;;;;;20.00;5.38;;;;;;;;;;10396811;28;20371;-80
2023/09/14 16:06:51;;;;;;;25.35;5.15;;;;;;;;;;10408937;28;20520;-75
2023/09/14 16:11:53;;;;;;;11.40;5.27;;;;;;;;;;10382687;28;20040;-74
2023/09/14 16:16:53;;;;;;;12.27;5.38;;;;;;;;;;10401318;28;20035;-75
2023/09/14 16:21:53;;;;;;;20.95;5.28;;;;;;;;;;10404901;28;20033;-76
2023/09/14 16:26:54;;;;;;;13.00;5.82;;;;;;;;;;10388148;28;20026;-74
2023/09/14 16:31:55;;;;;;;22.92;10.50;;;;;;;;;;10406635;28;20029;-77
2023/09/14 16:36:56;;;;;;;16.15;8.38;;;;;;;;;;10405035;28;20049;-75
2023/09/14 16:41:57;;;;;;;11.02;4.57;;;;;;;;;;10412855;28;21003;-76
2023/09/14 16:46:57;;;;;;;17.27;4.85;;;;;;;;;;10394605;28;20029;-77
2023/09/14 16:51:58;;;;;;;14.63;5.30;;;;;;;;;;10390529;28;20028;-79
2023/09/14 16:56:58;;;;;;;15.77;4.78;;;;;;;;;;10390644;28;20115;-75
2023/09/14 17:01:59;;;;;;;14.38;6.35;;;;;;;;;;10372032;28;20049;-81
2023/09/14 17:07:00;;;;;;;17.40;6.03;;;;;;;;;;10395832;28;20040;-78
2023/09/14 17:12:01;;;;;;;15.75;5.28;;;;;;;;;;10372884;28;20034;-77
2023/09/14 17:17:02;;;;;;;15.73;5.70;;;;;;;;;;10400380;28;20036;-78
2023/09/14 17:22:04;;;;;;;15.30;5.93;;;;;;;;;;10406348;28;20033;-80
2023/09/14 17:27:05;;;;;;;13.30;5.88;;;;;;;;;;10396560;28;20139;-75
2023/09/14 17:32:05;;;;;;;11.13;5.32;;;;;;;;;;10386605;28;20222;-77
2023/09/14 17:37:06;;;;;;;16.55;6.10;;;;;;;;;;10392680;28;20061;-76
2023/09/14 17:42:07;;;;;;;16.80;6.13;;;;;;;;;;10413056;28;20496;-78
2023/09/14 17:47:08;;;;;;;15.20;7.03;;;;;;;;;;10437694;28;20048;-76
2023/09/14 17:52:10;;;;;;;11.68;6.05;;;;;;;;;;10418548;28;20576;-82
2023/09/14 17:57:10;;;;;;;16.58;6.93;;;;;;;;;;10435997;28;20144;-79
2023/09/14 18:02:10;;;;;;;11.38;5.75;;;;;;;;;;10421136;28;20035;-82
2023/09/14 18:07:15;;;;;;;15.57;5.90;;;;;;;;;;10437899;28;20025;-86
2023/09/14 18:12:35;;;;;;;20.35;6.75;;;;;;;;;;10433555;28;20090;-77
2023/09/14 18:17:36;;;;;;;14.65;7.07;;;;;;;;;;10417025;28;20122;-75
2023/09/14 18:22:37;;;;;;;13.88;7.13;;;;;;;;;;10439198;28;20013;-80
2023/09/14 18:27:39;;;;;;;13.63;7.78;;;;;;;;;;10419064;28;20481;-83
2023/09/14 18:32:55;;;;;;;17.00;6.57;;;;;;;;;;10400926;28;20527;-82
2023/09/14 18:37:56;;;;;;;16.35;6.53;;;;;;;;;;10413973;28;20048;-80
2023/09/14 18:42:59;;;;;;;13.82;6.93;;;;;;;;;;10426385;28;20477;-80
2023/09/14 18:48:00;;;;;;;25.80;8.77;;;;;;;;;;10424184;28;20021;-79
2023/09/14 18:53:01;;;;;;;13.35;6.80;;;;;;;;;;10425032;28;20043;-78
2023/09/14 18:58:02;;;;;;;22.83;6.80;;;;;;;;;;10407999;28;20474;-77
2023/09/14 19:03:07;;;;;;;18.70;6.75;;;;;;;;;;10423821;28;20041;-81
2023/09/14 19:08:07;;;;;;;16.33;7.07;;;;;;;;;;10420895;28;20036;-79
2023/09/14 19:13:08;;;;;;;14.40;7.53;;;;;;;;;;10428451;28;20032;-77
2023/09/14 19:18:10;;;;;;;15.32;7.00;;;;;;;;;;10420840;28;20048;-78
2023/09/14 19:23:13;;;;;;;13.25;7.40;;;;;;;;;;10429677;28;20098;-80
2023/09/14 19:28:15;;;;;;;14.10;6.93;;;;;;;;;;10431890;28;20501;-75
2023/09/14 19:33:19;;;;;;;16.10;7.47;;;;;;;;;;10444576;28;20045;-71
2023/09/14 19:38:20;;;;;;;21.42;7.68;;;;;;;;;;10466128;28;20497;-73
2023/09/14 19:43:21;;;;;;;13.82;8.45;;;;;;;;;;10449563;28;20123;-77
2023/09/14 19:48:21;;;;;;;17.65;7.60;;;;;;;;;;10459495;28;20531;-79
2023/09/14 19:53:21;;;;;;;16.63;8.33;;;;;;;;;;10454474;28;20681;-77
2023/09/14 19:58:22;;;;;;;17.13;7.63;;;;;;;;;;10453884;28;20017;-81
2023/09/14 20:03:22;;;;;;;17.65;7.82;;;;;;;;;;10459444;28;20036;-77
2023/09/14 20:08:25;;;;;;;19.00;8.20;;;;;;;;;;10442713;28;20078;-78
2023/09/14 20:13:26;;;;;;;16.63;7.93;;;;;;;;;;10464778;28;20068;-81
2023/09/14 20:18:36;;;;;;;24.27;8.35;;;;;;;;;;10432735;28;20104;-81
2023/09/14 20:23:39;;;;;;;13.77;8.27;;;;;;;;;;10444847;28;20055;-86
2023/09/14 20:28:42;;;;;;;18.42;8.75;;;;;;;;;;10469718;28;20044;-72
2023/09/14 20:33:51;;;;;;;25.10;9.73;;;;;;;;;;10456303;28;20061;-83
2023/09/14 20:38:54;;;;;;;18.37;10.80;;;;;;;;;;10445684;28;20152;-82
2023/09/14 20:43:56;;;;;;;21.08;11.82;;;;;;;;;;10462045;28;20037;-82
2023/09/14 20:49:00;;;;;;;15.27;9.07;;;;;;;;;;10458611;28;20042;-82
2023/09/14 20:54:21;;;;;;;15.82;8.60;;;;;;;;;;10457568;28;20401;-84
2023/09/14 20:59:22;;;;;;;14.52;9.07;;;;;;;;;;10455982;28;20033;-80
2023/09/14 21:04:24;;;;;;;13.85;8.30;;;;;;;;;;10423898;28;20117;-77
2023/09/14 21:09:24;;;;;;;20.25;9.98;;;;;;;;;;10447958;28;20032;-77
2023/09/14 21:14:46;;;;;;;13.40;9.07;;;;;;;;;;10461878;28;20567;-75
2023/09/14 21:19:54;;;;;;;30.08;10.52;;;;;;;;;;10450824;28;20547;-72
2023/09/14 21:24:58;;;;;;;14.43;8.75;;;;;;;;;;10449069;28;20020;-78
2023/09/14 21:29:58;;;;;;;16.48;9.63;;;;;;;;;;10454742;28;20401;-73
2023/09/14 21:35:00;;;;;;;19.65;10.00;;;;;;;;;;10464410;28;20056;-73
2023/09/14 21:40:00;;;;;;;18.38;9.50;;;;;;;;;;10453110;28;20153;-76
2023/09/14 21:45:05;;;;;;;15.90;9.02;;;;;;;;;;10448112;28;20051;-79
2023/09/14 21:50:06;;;;;;;13.65;10.20;;;;;;;;;;10448912;28;20563;-78
2023/09/14 21:55:07;;;;;;;15.48;10.20;;;;;;;;;;10448698;28;20029;-74
2023/09/14 22:00:58;;;;;;;19.27;10.95;;;;;;;;;;10449479;28;20107;-80
2023/09/14 22:05:58;;;;;;;15.52;9.20;;;;;;;;;;10382002;28;20025;-73
2023/09/14 22:11:04;;;;;;;15.63;9.68;;;;;;;;;;10445725;28;20508;-77
2023/09/14 22:16:07;;;;;;;12.85;9.38;;;;;;;;;;10444335;28;20035;-83
2023/09/14 22:21:11;;;;;;;17.88;9.38;;;;;;;;;;10456556;28;20427;-73
2023/09/14 22:26:11;;;;;;;18.98;9.30;;;;;;;;;;10453047;28;20028;-77
2023/09/14 22:31:13;;;;;;;13.20;9.18;;;;;;;;;;10448143;28;20024;-77
2023/09/14 22:36:13;;;;;;;16.25;8.95;;;;;;;;;;10434593;28;20309;-76
2023/09/14 22:41:16;;;;;;;23.08;10.23;;;;;;;;;;10459282;28;20548;-76
2023/09/14 22:46:47;;;;;;;15.68;9.20;;;;;;;;;;10470198;28;20025;-74
2023/09/14 22:51:48;;;;;;;19.00;9.02;;;;;;;;;;10459731;28;20750;-75
2023/09/14 22:56:52;;;;;;;24.33;9.32;;;;;;;;;;10450953;28;20024;-76
2023/09/14 23:01:53;;;;;;;13.00;9.45;;;;;;;;;;10468088;28;20081;-75
2023/09/14 23:06:54;;;;;;;18.30;9.63;;;;;;;;;;10444916;28;20021;-75
2023/09/14 23:11:54;;;;;;;13.13;9.65;;;;;;;;;;10460262;28;20055;-76
2023/09/14 23:16:55;;;;;;;12.88;8.95;;;;;;;;;;10446483;28;20558;-73
2023/09/14 23:21:56;;;;;;;13.00;9.05;;;;;;;;;;10441642;28;20028;-72
2023/09/14 23:26:57;;;;;;;14.45;10.23;;;;;;;;;;10448128;28;20036;-75
2023/09/14 23:31:58;;;;;;;15.90;9.68;;;;;;;;;;10447494;28;20326;-74
2023/09/14 23:36:58;;;;;;;18.23;9.43;;;;;;;;;;10406165;28;20045;-76
2023/09/14 23:41:59;;;;;;;14.30;10.83;;;;;;;;;;10399994;28;20045;-75
2023/09/14 23:46:59;;;;;;;19.75;10.15;;;;;;;;;;10391452;28;20053;-75
2023/09/14 23:52:03;;;;;;;16.05;10.90;;;;;;;;;;10398942;28;20045;-77
2023/09/14 23:57:03;;;;;;;17.88;10.73;;;;;;;;;;10408176;28;20025;-77
